createdAt,value
2023-01-07T00:01:09.610Z,76.41
2023-01-07T00:03:37.130Z,76.28
2023-01-07T00:06:09.471Z,75.95
2023-01-07T00:08:38.134Z,77.00
2023-01-07T00:11:06.502Z,76.49
2023-01-07T00:13:33.255Z,76.41
2023-01-07T00:16:01.450Z,77.28
2023-01-07T00:18:28.074Z,76.41
2023-01-07T00:21:02.713Z,76.09
2023-01-07T00:23:30.751Z,76.05
2023-01-07T00:26:06.081Z,76.51
2023-01-07T00:28:37.342Z,77.03
2023-01-07T00:31:16.521Z,78.23
2023-01-07T00:33:51.783Z,77.57
2023-01-07T00:36:19.533Z,78.13
2023-01-07T00:38:46.534Z,77.55
2023-01-07T00:41:12.938Z,77.73
2023-01-07T00:43:39.502Z,78.42
2023-01-07T00:46:06.067Z,79.02
2023-01-07T00:48:32.517Z,78.45
2023-01-07T00:50:58.914Z,78.91
2023-01-07T00:53:25.287Z,78.18
2023-01-07T00:55:52.048Z,77.59
2023-01-07T00:58:24.298Z,77.47
2023-01-07T01:00:55.066Z,77.02
2023-01-07T01:03:21.743Z,77.56
2023-01-07T01:05:48.251Z,77.15
2023-01-07T01:08:14.679Z,77.66
2023-01-07T01:10:41.105Z,78.08
2023-01-07T01:13:07.571Z,78.45
2023-01-07T01:15:34.016Z,78.66
2023-01-07T01:18:00.464Z,78.51
2023-01-07T01:20:26.905Z,78.46
2023-01-07T01:22:53.354Z,78.89
2023-01-07T01:25:19.756Z,78.47
2023-01-07T01:27:46.140Z,79.09
2023-01-07T01:30:12.784Z,78.92
2023-01-07T01:32:39.202Z,80.97
2023-01-07T01:35:06.174Z,81.33
2023-01-07T01:37:32.588Z,78.51
2023-01-07T01:39:59.034Z,78.80
2023-01-07T01:42:26.083Z,78.32
2023-01-07T01:44:53.782Z,80.02
2023-01-07T01:47:35.298Z,79.58
2023-01-07T01:50:26.797Z,80.29
2023-01-07T01:52:59.803Z,79.51
2023-01-07T01:55:33.194Z,79.19
2023-01-07T01:58:04.280Z,79.02
2023-01-07T02:00:31.509Z,79.23
2023-01-07T02:02:59.526Z,77.79
2023-01-07T02:05:31.575Z,78.83
2023-01-07T02:07:57.997Z,80.58
2023-01-07T02:10:25.348Z,79.31
2023-01-07T02:13:17.698Z,78.26
2023-01-07T02:15:56.360Z,78.92
2023-01-07T02:18:44.664Z,78.76
2023-01-07T02:21:27.255Z,81.26
2023-01-07T02:24:11.281Z,79.37
2023-01-07T02:26:52.689Z,78.18
2023-01-07T02:29:41.182Z,77.42
2023-01-07T02:32:28.077Z,76.91
2023-01-07T02:35:19.046Z,77.48
2023-01-07T02:38:04.329Z,76.18
2023-01-07T02:40:37.038Z,76.33
2023-01-07T02:43:27.267Z,76.66
2023-01-07T02:46:16.024Z,75.73
2023-01-07T02:48:44.991Z,75.51
2023-01-07T02:51:11.648Z,75.57
2023-01-07T02:53:42.064Z,75.38
2023-01-07T02:56:51.764Z,76.15
2023-01-07T02:59:27.267Z,78.16
2023-01-07T03:02:18.386Z,78.87
2023-01-07T03:05:11.964Z,79.88
2023-01-07T03:07:41.063Z,80.70
2023-01-07T03:10:25.428Z,80.34
2023-01-07T03:12:58.388Z,83.11
2023-01-07T03:15:39.792Z,81.58
2023-01-07T03:18:18.595Z,79.83
2023-01-07T03:20:48.580Z,79.75
2023-01-07T03:23:20.135Z,79.84
2023-01-07T03:25:50.294Z,79.32
2023-01-07T03:28:21.243Z,78.32
2023-01-07T03:30:49.178Z,81.62
2023-01-07T03:33:23.203Z,80.61
2023-01-07T03:35:52.048Z,79.88
2023-01-07T03:38:21.767Z,78.83
2023-01-07T03:40:50.738Z,79.37
2023-01-07T03:43:22.799Z,80.69
2023-01-07T03:45:52.292Z,78.00
2023-01-07T03:48:18.818Z,78.59
2023-01-07T03:50:45.292Z,79.62
2023-01-07T03:53:11.729Z,77.88
2023-01-07T03:55:38.127Z,78.09
2023-01-07T03:58:04.543Z,77.71
2023-01-07T04:00:30.983Z,77.04
2023-01-07T04:02:57.451Z,76.89
2023-01-07T04:05:23.889Z,77.06
2023-01-07T04:07:50.469Z,77.30
2023-01-07T04:10:16.861Z,76.90
2023-01-07T04:12:43.275Z,76.67
2023-01-07T04:15:10.077Z,76.90
2023-01-07T04:17:36.490Z,77.29
2023-01-07T04:20:03.647Z,80.80
2023-01-07T04:22:30.268Z,77.85
2023-01-07T04:24:57.920Z,76.34
2023-01-07T04:27:24.341Z,78.60
2023-01-07T04:29:50.796Z,76.74
2023-01-07T04:32:17.193Z,77.48
2023-01-07T04:34:43.612Z,76.80
2023-01-07T04:37:10.028Z,76.38
2023-01-07T04:39:36.470Z,76.09
2023-01-07T04:42:02.864Z,77.46
2023-01-07T04:44:29.343Z,78.31
2023-01-07T04:46:55.747Z,77.69
2023-01-07T04:49:22.167Z,77.65
2023-01-07T04:51:48.578Z,76.73
2023-01-07T04:54:15.172Z,76.73
2023-01-07T04:56:41.585Z,77.12
2023-01-07T04:59:08.017Z,76.33
2023-01-07T05:01:34.477Z,75.45
2023-01-07T05:04:01.252Z,76.57
2023-01-07T05:06:27.755Z,76.72
2023-01-07T05:08:54.275Z,78.08
2023-01-07T05:11:21.809Z,77.04
2023-01-07T05:13:51.250Z,76.59
2023-01-07T05:16:18.046Z,75.96
2023-01-07T05:18:45.059Z,75.40
2023-01-07T05:21:12.292Z,75.55
2023-01-07T05:23:38.820Z,75.25
2023-01-07T05:26:05.862Z,75.54
2023-01-07T05:28:32.296Z,75.43
2023-01-07T05:30:58.767Z,75.73
2023-01-07T05:33:25.261Z,76.57
2023-01-07T05:35:51.772Z,75.58
2023-01-07T05:38:18.192Z,75.26
2023-01-07T05:40:49.743Z,75.75
2023-01-07T05:43:16.861Z,77.30
2023-01-07T05:45:45.623Z,78.63
2023-01-07T05:48:13.267Z,77.55
2023-01-07T05:50:39.722Z,77.33
2023-01-07T05:53:06.238Z,76.50
2023-01-07T05:55:32.878Z,76.35
2023-01-07T05:57:59.286Z,76.61
2023-01-07T06:00:25.690Z,75.85
2023-01-07T06:02:52.073Z,75.86
2023-01-07T06:05:18.523Z,75.71
2023-01-07T06:07:44.921Z,76.21
2023-01-07T06:10:11.342Z,76.59
2023-01-07T06:12:37.765Z,76.45
2023-01-07T06:15:07.070Z,76.14
2023-01-07T06:17:34.192Z,75.73
2023-01-07T06:20:00.941Z,76.94
2023-01-07T06:22:27.631Z,75.37
2023-01-07T06:24:54.153Z,75.65
2023-01-07T06:27:20.616Z,75.99
2023-01-07T06:29:47.052Z,76.41
2023-01-07T06:32:13.544Z,75.89
2023-01-07T06:34:39.940Z,75.50
2023-01-07T06:37:06.417Z,75.17
2023-01-07T06:39:32.822Z,75.27
2023-01-07T06:41:59.237Z,75.03
2023-01-07T06:44:25.636Z,74.72
2023-01-07T06:46:52.244Z,75.69
2023-01-07T06:49:18.692Z,75.72
2023-01-07T06:51:45.146Z,75.21
2023-01-07T06:54:11.615Z,75.68
2023-01-07T06:56:38.031Z,74.89
2023-01-07T06:59:04.477Z,74.62
2023-01-07T07:01:31.010Z,74.84
2023-01-07T07:03:57.462Z,75.27
2023-01-07T07:06:23.876Z,73.98
2023-01-07T07:08:50.265Z,75.95
2023-01-07T07:11:16.727Z,74.65
2023-01-07T07:13:43.141Z,74.31
2023-01-07T07:16:09.642Z,74.57
2023-01-07T07:18:36.146Z,74.65
2023-01-07T07:21:02.636Z,75.19
2023-01-07T07:23:29.077Z,74.80
2023-01-07T07:25:55.498Z,73.79
2023-01-07T07:28:21.974Z,72.67
2023-01-07T07:30:48.555Z,73.07
2023-01-07T07:33:18.906Z,72.77
2023-01-07T07:35:46.623Z,73.65
2023-01-07T07:38:13.105Z,73.02
2023-01-07T07:40:39.550Z,72.89
2023-01-07T07:43:11.821Z,73.69
2023-01-07T07:45:39.945Z,73.39
2023-01-07T07:48:07.576Z,73.46
2023-01-07T07:50:34.899Z,72.98
2023-01-07T07:53:01.507Z,72.73
2023-01-07T07:55:28.096Z,72.84
2023-01-07T07:57:55.621Z,72.76
2023-01-07T08:00:23.190Z,72.43
2023-01-07T08:02:50.174Z,72.28
2023-01-07T08:05:16.634Z,71.92
2023-01-07T08:07:43.044Z,72.31
2023-01-07T08:10:09.668Z,71.90
2023-01-07T08:12:39.888Z,72.20
2023-01-07T08:15:08.115Z,72.56
2023-01-07T08:17:36.217Z,72.40
2023-01-07T08:20:07.452Z,71.34
2023-01-07T08:22:34.434Z,70.37
2023-01-07T08:25:01.701Z,68.63
2023-01-07T08:27:29.100Z,68.70
2023-01-07T08:29:56.182Z,67.77
2023-01-07T08:32:22.728Z,67.67
2023-01-07T08:34:49.155Z,68.98
2023-01-07T08:37:15.580Z,68.00
2023-01-07T08:42:09.695Z,66.26
2023-01-07T08:44:36.140Z,66.50
2023-01-07T08:47:02.701Z,65.57
2023-01-07T08:49:29.201Z,65.47
2023-01-07T08:51:55.607Z,65.12
2023-01-07T08:54:22.039Z,64.34
2023-01-07T08:56:48.490Z,65.89
2023-01-07T08:59:15.152Z,66.20
2023-01-07T09:01:41.727Z,66.21
2023-01-07T09:04:08.278Z,65.22
2023-01-07T09:06:34.660Z,65.72
2023-01-07T09:09:01.119Z,65.01
2023-01-07T09:11:27.554Z,63.75
2023-01-07T09:13:53.975Z,62.90
2023-01-07T09:16:20.430Z,62.91
2023-01-07T09:18:46.984Z,66.30
2023-01-07T09:21:13.451Z,63.32
2023-01-07T09:23:40.398Z,62.52
2023-01-07T09:26:07.271Z,62.07
2023-01-07T09:28:33.701Z,62.54
2023-01-07T09:31:00.855Z,62.93
2023-01-07T09:33:27.350Z,63.17
2023-01-07T09:35:53.868Z,63.69
2023-01-07T09:38:20.297Z,60.35
2023-01-07T09:40:47.328Z,58.68
2023-01-07T09:43:21.355Z,57.21
2023-01-07T09:45:52.426Z,57.31
2023-01-07T09:48:29.564Z,57.78
2023-01-07T09:51:03.514Z,59.81
2023-01-07T09:53:36.813Z,60.15
2023-01-07T09:56:11.583Z,59.98
2023-01-07T09:58:41.771Z,60.54
2023-01-07T10:01:23.093Z,59.32
2023-01-07T10:04:31.515Z,58.48
2023-01-07T10:07:31.944Z,60.20
2023-01-07T10:10:38.712Z,63.35
2023-01-07T10:13:16.950Z,62.51
2023-01-07T10:15:58.250Z,62.84
2023-01-07T10:18:40.755Z,64.07
2023-01-07T10:21:22.222Z,63.20
2023-01-07T10:24:20.440Z,62.29
2023-01-07T10:26:51.275Z,61.82
2023-01-07T10:29:27.355Z,63.82
2023-01-07T10:31:56.070Z,64.38
2023-01-07T10:34:34.218Z,63.72
2023-01-07T10:37:12.967Z,63.15
2023-01-07T10:39:47.468Z,66.21
2023-01-07T10:42:30.941Z,63.85
2023-01-07T10:45:25.283Z,63.03
2023-01-07T10:48:27.137Z,64.72
2023-01-07T10:51:38.513Z,63.10
2023-01-07T10:54:19.881Z,62.37
2023-01-07T10:56:58.144Z,63.66
2023-01-07T10:59:25.548Z,61.57
2023-01-07T11:01:57.523Z,61.22
2023-01-07T11:04:24.701Z,60.62
2023-01-07T11:06:58.522Z,60.90
2023-01-07T11:09:29.714Z,60.11
2023-01-07T11:12:01.030Z,61.84
2023-01-07T11:14:34.145Z,61.42
2023-01-07T11:17:26.231Z,60.51
2023-01-07T11:19:52.661Z,62.47
2023-01-07T11:22:28.030Z,60.20
2023-01-07T11:24:55.567Z,61.12
2023-01-07T11:27:25.267Z,60.73
2023-01-07T11:30:10.814Z,63.10
2023-01-07T11:32:40.451Z,59.22
2023-01-07T11:35:22.595Z,61.19
2023-01-07T11:37:49.830Z,59.60
2023-01-07T11:40:24.420Z,58.44
2023-01-07T11:43:04.437Z,61.97
2023-01-07T11:45:47.623Z,59.86
2023-01-07T11:48:38.506Z,59.05
2023-01-07T11:51:10.103Z,59.13
2023-01-07T11:53:48.749Z,59.57
2023-01-07T11:56:21.239Z,59.46
2023-01-07T11:59:15.284Z,59.44
2023-01-07T12:02:02.034Z,57.85
2023-01-07T12:04:30.482Z,58.52
2023-01-07T12:07:01.294Z,59.05
2023-01-07T12:09:27.711Z,58.08
2023-01-07T12:11:57.630Z,57.39
2023-01-07T12:14:32.746Z,58.71
2023-01-07T12:17:16.015Z,57.53
2023-01-07T12:19:58.840Z,59.61
2023-01-07T12:22:43.769Z,57.09
2023-01-07T12:25:13.240Z,56.46
2023-01-07T12:28:13.150Z,57.07
2023-01-07T12:30:58.438Z,57.81
2023-01-07T12:33:43.015Z,58.00
2023-01-07T12:36:29.543Z,54.42
2023-01-07T12:39:00.909Z,53.81
2023-01-07T12:41:32.301Z,53.97
2023-01-07T12:44:02.693Z,56.77
2023-01-07T12:47:31.211Z,54.11
2023-01-07T12:49:53.099Z,53.98
2023-01-07T12:52:24.353Z,54.07
2023-01-07T12:55:03.738Z,53.88
2023-01-07T12:57:41.529Z,54.08
2023-01-07T13:00:19.856Z,52.99
2023-01-07T13:02:57.981Z,53.97
2023-01-07T13:05:31.373Z,53.38
2023-01-07T13:08:36.692Z,53.29
2023-01-07T13:11:44.627Z,55.20
2023-01-07T13:14:21.921Z,55.37
2023-01-07T13:16:48.486Z,53.27
2023-01-07T13:19:14.941Z,54.47
2023-01-07T13:21:45.431Z,53.53
2023-01-07T13:24:56.346Z,53.52
2023-01-07T13:27:41.152Z,54.35
2023-01-07T13:30:27.147Z,53.67
2023-01-07T13:33:13.680Z,54.98
2023-01-07T13:36:06.792Z,55.87
2023-01-07T13:38:42.337Z,55.22
2023-01-07T13:41:36.393Z,54.84
2023-01-07T13:44:27.791Z,54.20
2023-01-07T13:46:55.039Z,55.25
2023-01-07T13:49:26.795Z,54.94
2023-01-07T13:51:54.011Z,54.01
2023-01-07T13:54:53.517Z,54.22
2023-01-07T13:57:26.144Z,54.30
2023-01-07T13:59:57.039Z,54.74
2023-01-07T14:02:26.533Z,55.28
2023-01-07T14:05:23.490Z,54.47
2023-01-07T14:08:04.028Z,53.75
2023-01-07T14:10:32.467Z,53.64
2023-01-07T14:13:14.188Z,53.80
2023-01-07T14:16:05.969Z,53.14
2023-01-07T14:19:06.141Z,53.46
2023-01-07T14:21:52.570Z,53.98
2023-01-07T14:24:32.650Z,53.98
2023-01-07T14:27:39.255Z,53.64
2023-01-07T14:30:43.518Z,54.10
2023-01-07T14:33:17.871Z,54.98
2023-01-07T14:35:54.800Z,54.36
2023-01-07T14:38:29.992Z,55.51
2023-01-07T14:41:09.361Z,55.93
2023-01-07T14:43:51.636Z,55.22
2023-01-07T14:46:21.186Z,55.27
2023-01-07T14:49:03.384Z,54.91
2023-01-07T14:51:44.941Z,55.84
2023-01-07T14:54:32.675Z,55.47
2023-01-07T14:57:29.638Z,55.61
2023-01-07T15:00:05.134Z,54.93
2023-01-07T15:02:43.765Z,55.16
2023-01-07T15:05:39.828Z,55.77
2023-01-07T15:08:28.109Z,55.90
2023-01-07T15:11:16.981Z,55.62
2023-01-07T15:14:15.594Z,55.12
2023-01-07T15:16:45.789Z,54.47
2023-01-07T15:19:12.750Z,55.08
2023-01-07T15:21:45.076Z,55.45
2023-01-07T15:24:20.656Z,55.41
2023-01-07T15:26:57.357Z,56.27
2023-01-07T15:29:50.543Z,56.64
2023-01-07T15:32:32.206Z,55.76
2023-01-07T15:34:58.911Z,55.79
2023-01-07T15:37:25.553Z,55.61
2023-01-07T15:39:57.280Z,55.26
2023-01-07T15:42:26.775Z,56.05
2023-01-07T15:44:58.103Z,56.28
2023-01-07T15:47:43.719Z,56.63
2023-01-07T15:50:22.128Z,56.94
2023-01-07T15:52:56.155Z,57.93
2023-01-07T15:55:26.258Z,58.33
2023-01-07T15:57:59.764Z,57.90
2023-01-07T16:00:26.387Z,57.14
2023-01-07T16:02:53.263Z,58.02
2023-01-07T16:05:20.059Z,58.27
2023-01-07T16:07:52.729Z,58.84
2023-01-07T16:10:29.403Z,58.28
2023-01-07T16:12:58.268Z,58.40
2023-01-07T16:15:30.567Z,59.00
2023-01-07T16:17:59.963Z,59.77
2023-01-07T16:20:30.491Z,59.74
2023-01-07T16:23:17.827Z,59.50
2023-01-07T16:25:47.325Z,58.67
2023-01-07T16:28:31.226Z,60.19
2023-01-07T16:30:58.242Z,59.47
2023-01-07T16:33:27.135Z,59.81
2023-01-07T16:35:57.733Z,60.45
2023-01-07T16:38:25.318Z,60.95
2023-01-07T16:40:52.554Z,60.22
2023-01-07T16:43:42.230Z,59.37
2023-01-07T16:46:28.585Z,60.69
2023-01-07T16:49:28.990Z,61.28
2023-01-07T16:52:11.721Z,61.34
2023-01-07T16:54:40.249Z,62.58
2023-01-07T16:57:12.725Z,62.67
2023-01-07T16:59:53.837Z,62.42
2023-01-07T17:02:42.455Z,61.51
2023-01-07T17:05:12.400Z,62.10
2023-01-07T17:07:39.416Z,62.52
2023-01-07T17:10:06.480Z,61.15
2023-01-07T17:12:40.458Z,61.73
2023-01-07T17:15:31.245Z,61.44
2023-01-07T17:18:13.063Z,61.28
2023-01-07T17:20:52.769Z,62.83
2023-01-07T17:23:25.400Z,62.47
2023-01-07T17:26:01.026Z,62.40
2023-01-07T17:28:31.451Z,61.53
2023-01-07T17:30:58.516Z,61.86
2023-01-07T17:33:25.335Z,60.28
2023-01-07T17:35:54.390Z,61.43
2023-01-07T17:38:20.942Z,61.61
2023-01-07T17:40:48.059Z,60.21
2023-01-07T17:43:34.636Z,60.39
2023-01-07T17:46:14.637Z,60.84
2023-01-07T17:48:41.093Z,61.15
2023-01-07T17:51:09.854Z,61.13
2023-01-07T17:53:42.409Z,60.06
2023-01-07T17:56:09.205Z,59.71
2023-01-07T17:58:37.510Z,61.22
2023-01-07T18:01:12.276Z,61.93
2023-01-07T18:03:38.948Z,62.10
2023-01-07T18:06:16.433Z,63.06
2023-01-07T18:08:43.057Z,63.05
2023-01-07T18:11:32.042Z,62.51
2023-01-07T18:13:58.581Z,62.52
2023-01-07T18:16:25.389Z,60.79
2023-01-07T18:18:51.860Z,61.27
2023-01-07T18:21:18.485Z,62.19
2023-01-07T18:23:45.986Z,60.59
2023-01-07T18:26:14.116Z,61.31
2023-01-07T18:28:41.738Z,61.27
2023-01-07T18:31:08.429Z,60.82
2023-01-07T18:33:35.422Z,60.22
2023-01-07T18:36:02.117Z,61.14
2023-01-07T18:38:28.568Z,62.08
2023-01-07T18:40:55.559Z,61.05
2023-01-07T18:43:22.352Z,59.92
2023-01-07T18:45:49.090Z,60.20
2023-01-07T18:48:19.169Z,60.67
2023-01-07T18:50:48.286Z,60.30
2023-01-07T18:53:16.241Z,60.14
2023-01-07T18:55:43.789Z,60.11
2023-01-07T18:58:15.192Z,59.19
2023-01-07T19:00:42.047Z,58.52
2023-01-07T19:03:09.930Z,59.41
2023-01-07T19:05:39.193Z,58.01
2023-01-07T19:08:05.731Z,57.64
2023-01-07T19:10:32.326Z,56.85
2023-01-07T19:12:58.764Z,56.85
2023-01-07T19:15:25.168Z,56.68
2023-01-07T19:17:51.645Z,56.38
2023-01-07T19:20:18.257Z,56.49
2023-01-07T19:22:44.680Z,55.90
2023-01-07T19:25:11.146Z,55.14
2023-01-07T19:27:37.882Z,54.73
2023-01-07T19:30:05.660Z,55.92
2023-01-07T19:32:32.093Z,55.93
2023-01-07T19:34:58.635Z,55.90
2023-01-07T19:37:25.177Z,55.52
2023-01-07T19:39:51.683Z,55.38
2023-01-07T19:42:18.162Z,54.74
2023-01-07T19:44:44.650Z,54.42
2023-01-07T19:47:11.191Z,54.14
2023-01-07T19:49:37.675Z,55.04
2023-01-07T19:52:04.182Z,54.86
2023-01-07T19:54:30.774Z,54.24
2023-01-07T19:56:57.191Z,54.60
2023-01-07T19:59:23.636Z,54.93
2023-01-07T20:01:50.274Z,54.20
2023-01-07T20:04:16.850Z,54.30
2023-01-07T20:06:43.413Z,55.20
2023-01-07T20:09:12.699Z,56.23
2023-01-07T20:11:40.471Z,56.01
2023-01-07T20:14:07.733Z,56.02
2023-01-07T20:16:36.715Z,56.08
2023-01-07T20:19:03.638Z,54.90
2023-01-07T20:21:30.138Z,55.68
2023-01-07T20:23:56.626Z,54.21
2023-01-07T20:26:26.727Z,55.06
2023-01-07T20:28:53.693Z,56.34
2023-01-07T20:31:22.079Z,56.12
2023-01-07T20:33:50.379Z,57.47
2023-01-07T20:36:19.252Z,55.71
2023-01-07T20:38:46.737Z,54.76
2023-01-07T20:41:18.731Z,55.32
2023-01-07T20:43:53.889Z,55.43
2023-01-07T20:46:20.977Z,54.96
2023-01-07T20:48:47.750Z,55.15
2023-01-07T20:51:15.665Z,54.28
2023-01-07T20:53:42.463Z,54.32
2023-01-07T20:56:09.581Z,54.52
2023-01-07T20:58:37.662Z,54.63
2023-01-07T21:01:14.284Z,55.24
2023-01-07T21:03:41.341Z,54.58
2023-01-07T21:06:10.367Z,55.96
2023-01-07T21:08:37.421Z,54.73
2023-01-07T21:11:07.270Z,55.19
2023-01-07T21:13:33.873Z,56.50
2023-01-07T21:16:04.522Z,54.62
2023-01-07T21:19:09.650Z,54.45
2023-01-07T21:21:36.166Z,54.12
2023-01-07T21:24:02.625Z,53.58
2023-01-07T21:26:29.115Z,54.49
2023-01-07T21:28:56.137Z,54.14
2023-01-07T21:31:23.391Z,54.56
2023-01-07T21:33:53.500Z,54.71
2023-01-07T21:36:19.996Z,54.54
2023-01-07T21:38:51.196Z,54.91
2023-01-07T21:41:17.647Z,55.20
2023-01-07T21:43:44.676Z,54.94
2023-01-07T21:46:11.512Z,54.59
2023-01-07T21:48:40.677Z,54.91
2023-01-07T21:51:12.525Z,54.88
2023-01-07T21:53:38.940Z,55.47
2023-01-07T21:56:11.651Z,54.99
2023-01-07T21:58:38.500Z,54.82
2023-01-07T22:01:05.991Z,54.65
2023-01-07T22:03:33.049Z,55.37
2023-01-07T22:06:02.014Z,56.55
2023-01-07T22:08:28.571Z,56.46
2023-01-07T22:10:55.039Z,56.57
2023-01-07T22:13:21.725Z,55.91
2023-01-07T22:15:48.191Z,56.33
2023-01-07T22:18:14.592Z,55.71
2023-01-07T22:20:41.322Z,55.35
2023-01-07T22:23:08.228Z,55.51
2023-01-07T22:25:34.708Z,55.78
2023-01-07T22:28:04.033Z,55.83
2023-01-07T22:30:34.217Z,55.43
2023-01-07T22:33:00.740Z,56.07
2023-01-07T22:35:28.517Z,57.04
2023-01-07T22:37:55.858Z,55.92
2023-01-07T22:40:22.439Z,55.84
2023-01-07T22:42:56.990Z,55.84
2023-01-07T22:45:34.546Z,56.14
2023-01-07T22:48:02.672Z,56.59
2023-01-07T22:50:29.286Z,56.89
2023-01-07T22:52:55.724Z,57.36
2023-01-07T22:55:22.252Z,59.11
2023-01-07T22:57:48.983Z,58.73
2023-01-07T23:00:36.834Z,59.38
2023-01-07T23:03:03.597Z,58.61
2023-01-07T23:05:30.157Z,56.97
2023-01-07T23:07:59.319Z,56.31
2023-01-07T23:10:25.757Z,56.32
2023-01-07T23:12:52.192Z,59.55
2023-01-07T23:15:18.604Z,57.47
2023-01-07T23:17:45.070Z,56.91
2023-01-07T23:20:11.563Z,55.47
2023-01-07T23:22:37.984Z,55.67
2023-01-07T23:25:04.911Z,55.79
2023-01-07T23:27:31.339Z,55.84
2023-01-07T23:29:58.569Z,55.25
2023-01-07T23:32:25.389Z,55.42
2023-01-07T23:34:51.872Z,55.67
2023-01-07T23:37:18.311Z,56.90
2023-01-07T23:39:44.728Z,57.54
2023-01-07T23:42:11.146Z,56.65
2023-01-07T23:44:37.574Z,55.96
2023-01-07T23:47:04.551Z,57.23
2023-01-07T23:49:31.927Z,56.43
2023-01-07T23:51:58.721Z,55.37
2023-01-07T23:54:25.159Z,55.02
2023-01-07T23:56:51.743Z,55.38
2023-01-07T23:59:18.451Z,54.83
